createdAt,value
2022-11-28T00:09:49.000Z,984.76
2022-11-28T00:24:27.000Z,984.70
2022-11-28T00:39:04.000Z,984.48
2022-11-28T00:53:42.000Z,984.33
2022-11-28T01:08:17.000Z,984.30
2022-11-28T01:22:50.000Z,984.21
2022-11-28T01:37:26.000Z,984.10
2022-11-28T01:52:01.000Z,983.68
2022-11-28T02:06:39.000Z,983.62
2022-11-28T02:21:15.000Z,983.34
2022-11-28T02:35:46.000Z,983.36
2022-11-28T02:50:17.000Z,983.21
2022-11-28T03:04:52.000Z,983.10
2022-11-28T03:19:29.000Z,982.80
2022-11-28T03:34:05.000Z,982.50
2022-11-28T03:48:43.000Z,982.34
2022-11-28T04:03:20.000Z,982.44
2022-11-28T04:17:55.000Z,982.57
2022-11-28T04:32:31.000Z,982.44
2022-11-28T04:47:09.000Z,982.55
2022-11-28T05:01:46.000Z,982.46
2022-11-28T05:16:22.000Z,982.48
2022-11-28T05:30:57.000Z,982.70
2022-11-28T05:45:35.000Z,982.71
2022-11-28T06:00:08.000Z,982.59
2022-11-28T06:14:43.000Z,982.55
2022-11-28T06:29:19.000Z,982.62
2022-11-28T06:43:55.000Z,982.61
2022-11-28T06:58:33.000Z,982.66
2022-11-28T07:13:03.000Z,982.61
2022-11-28T07:27:32.000Z,982.59
2022-11-28T07:42:08.000Z,982.62
2022-11-28T07:56:42.000Z,982.57
2022-11-28T08:11:17.000Z,982.71
2022-11-28T08:25:53.000Z,982.83
2022-11-28T08:40:30.000Z,982.53
2022-11-28T08:55:07.000Z,982.48
2022-11-28T09:09:43.000Z,982.58
2022-11-28T09:24:20.000Z,982.60
2022-11-28T09:38:57.000Z,982.65
2022-11-28T09:53:33.000Z,982.70
2022-11-28T10:08:01.000Z,982.78
2022-11-28T10:22:36.000Z,982.68
2022-11-28T10:37:13.000Z,982.64
2022-11-28T10:51:50.000Z,982.66
2022-11-28T11:06:26.000Z,982.59
2022-11-28T11:21:03.000Z,982.51
2022-11-28T11:35:35.000Z,982.46
2022-11-28T11:50:09.000Z,982.51
2022-11-28T12:04:44.000Z,982.61
2022-11-28T12:19:20.000Z,982.52
2022-11-28T12:33:56.000Z,982.56
2022-11-28T12:48:31.000Z,982.45
2022-11-28T13:03:09.000Z,982.40
2022-11-28T13:17:45.000Z,982.33
2022-11-28T13:32:17.000Z,982.29
2022-11-28T13:46:54.000Z,982.23
2022-11-28T14:01:31.000Z,982.32
2022-11-28T14:16:08.000Z,982.37
2022-11-28T14:30:39.000Z,982.36
2022-11-28T14:45:14.000Z,982.51
2022-11-28T14:59:51.000Z,982.61
2022-11-28T15:14:28.000Z,982.66
2022-11-28T15:29:04.000Z,982.74
2022-11-28T15:43:34.000Z,982.86
2022-11-28T15:58:10.000Z,982.87
2022-11-28T16:12:43.000Z,982.97
2022-11-28T16:27:21.000Z,982.96
2022-11-28T16:41:59.000Z,983.11
2022-11-28T16:56:37.000Z,983.17
2022-11-28T17:11:09.000Z,983.25
2022-11-28T17:25:47.000Z,983.29
2022-11-28T17:40:22.000Z,983.39
2022-11-28T17:54:59.000Z,983.37
2022-11-28T18:09:33.000Z,983.36
2022-11-28T18:24:08.000Z,983.25
2022-11-28T18:38:46.000Z,983.44
2022-11-28T18:53:23.000Z,983.45
2022-11-28T19:07:54.000Z,983.51
2022-11-28T19:22:33.000Z,983.64
2022-11-28T19:37:04.000Z,983.68
2022-11-28T19:51:42.000Z,983.79
2022-11-28T20:06:19.000Z,983.72
2022-11-28T20:20:53.000Z,983.85
2022-11-28T20:35:31.000Z,984.01
2022-11-28T20:50:08.000Z,984.16
2022-11-28T21:04:47.000Z,984.19
2022-11-28T21:19:23.000Z,984.18
2022-11-28T21:34:01.000Z,984.24
2022-11-28T21:48:39.000Z,984.26
2022-11-28T22:03:17.000Z,984.28
2022-11-28T22:17:54.000Z,984.21
2022-11-28T22:32:32.000Z,984.36
2022-11-28T22:47:10.000Z,984.48
2022-11-28T23:01:47.000Z,984.65
2022-11-28T23:16:25.000Z,984.55
2022-11-28T23:31:02.000Z,984.65
2022-11-28T23:45:39.000Z,984.70
